sensor_id;sensor_type;location;lat;lon;timestamp;pressure;altitude;pressure_sealevel;temperature;humidity
31717;BME280;18301;51.076;17.046;2022-12-10T00:03:21;99174.38;;;3.02;85.11
31717;BME280;18301;51.076;17.046;2022-12-10T00:08:23;99163.94;;;2.84;86.09
31717;BME280;18301;51.076;17.046;2022-12-10T00:13:24;99166.31;;;2.89;85.97
31717;BME280;18301;51.076;17.046;2022-12-10T00:18:26;99162.00;;;2.86;86.06
31717;BME280;18301;51.076;17.046;2022-12-10T00:23:27;99162.59;;;2.91;85.61
31717;BME280;18301;51.076;17.046;2022-12-10T00:28:29;99163.56;;;2.90;85.84
31717;BME280;18301;51.076;17.046;2022-12-10T00:33:31;99162.03;;;2.72;86.58
31717;BME280;18301;51.076;17.046;2022-12-10T00:38:33;99159.66;;;2.82;85.93
31717;BME280;18301;51.076;17.046;2022-12-10T00:43:35;99149.06;;;2.80;85.96
31717;BME280;18301;51.076;17.046;2022-12-10T00:48:37;99156.88;;;2.83;86.17
31717;BME280;18301;51.076;17.046;2022-12-10T00:53:40;99161.25;;;2.70;86.20
31717;BME280;18301;51.076;17.046;2022-12-10T00:58:43;99159.94;;;2.63;87.32
31717;BME280;18301;51.076;17.046;2022-12-10T01:03:47;99161.81;;;2.61;87.20
31717;BME280;18301;51.076;17.046;2022-12-10T01:08:50;99159.25;;;2.73;86.64
31717;BME280;18301;51.076;17.046;2022-12-10T01:13:53;99175.16;;;2.75;86.33
31717;BME280;18301;51.076;17.046;2022-12-10T01:18:58;99169.16;;;2.86;86.43
31717;BME280;18301;51.076;17.046;2022-12-10T01:24:00;99179.94;;;2.84;86.73
31717;BME280;18301;51.076;17.046;2022-12-10T01:29:03;99180.59;;;2.88;86.52
31717;BME280;18301;51.076;17.046;2022-12-10T01:34:06;99179.94;;;2.84;86.59
31717;BME280;18301;51.076;17.046;2022-12-10T01:39:11;99182.09;;;2.92;86.41
31717;BME280;18301;51.076;17.046;2022-12-10T01:49:19;99183.72;;;3.09;85.06
31717;BME280;18301;51.076;17.046;2022-12-10T01:54:31;99173.19;;;2.93;85.67
31717;BME280;18301;51.076;17.046;2022-12-10T01:59:34;99175.28;;;3.02;84.85
31717;BME280;18301;51.076;17.046;2022-12-10T02:04:47;99173.66;;;2.99;85.98
31717;BME280;18301;51.076;17.046;2022-12-10T02:09:59;99171.53;;;3.05;85.47
31717;BME280;18301;51.076;17.046;2022-12-10T02:15:16;99173.16;;;3.21;84.74
31717;BME280;18301;51.076;17.046;2022-12-10T02:20:22;99176.84;;;3.05;84.62
31717;BME280;18301;51.076;17.046;2022-12-10T02:25:44;99166.97;;;2.92;85.19
31717;BME280;18301;51.076;17.046;2022-12-10T02:30:48;99179.53;;;2.90;84.99
31717;BME280;18301;51.076;17.046;2022-12-10T02:35:52;99172.47;;;2.89;85.38
31717;BME280;18301;51.076;17.046;2022-12-10T02:40:59;99177.63;;;2.92;85.94
31717;BME280;18301;51.076;17.046;2022-12-10T02:46:03;99189.06;;;3.09;85.34
31717;BME280;18301;51.076;17.046;2022-12-10T02:51:06;99200.09;;;3.03;85.99
31717;BME280;18301;51.076;17.046;2022-12-10T02:56:26;99186.84;;;3.01;85.36
31717;BME280;18301;51.076;17.046;2022-12-10T03:06:51;99200.69;;;2.93;85.84
31717;BME280;18301;51.076;17.046;2022-12-10T03:12:00;99187.63;;;3.03;85.72
31717;BME280;18301;51.076;17.046;2022-12-10T03:17:03;99205.44;;;3.03;85.25
31717;BME280;18301;51.076;17.046;2022-12-10T03:22:07;99192.75;;;2.92;85.37
31717;BME280;18301;51.076;17.046;2022-12-10T03:27:12;99193.41;;;2.95;85.29
31717;BME280;18301;51.076;17.046;2022-12-10T03:32:16;99209.59;;;2.92;85.45
31717;BME280;18301;51.076;17.046;2022-12-10T03:37:20;99215.31;;;2.86;86.00
31717;BME280;18301;51.076;17.046;2022-12-10T03:42:22;99205.97;;;2.79;85.39
31717;BME280;18301;51.076;17.046;2022-12-10T03:47:24;99196.09;;;2.81;85.29
31717;BME280;18301;51.076;17.046;2022-12-10T03:52:26;99204.47;;;2.89;85.96
31717;BME280;18301;51.076;17.046;2022-12-10T03:57:28;99206.75;;;2.81;85.53
31717;BME280;18301;51.076;17.046;2022-12-10T04:02:29;99210.47;;;2.93;85.52
31717;BME280;18301;51.076;17.046;2022-12-10T04:07:31;99211.13;;;3.11;84.79
31717;BME280;18301;51.076;17.046;2022-12-10T04:12:33;99219.88;;;2.98;84.19
31717;BME280;18301;51.076;17.046;2022-12-10T04:17:35;99214.19;;;2.90;84.47
31717;BME280;18301;51.076;17.046;2022-12-10T04:22:36;99226.66;;;2.90;84.70
31717;BME280;18301;51.076;17.046;2022-12-10T04:27:57;99226.28;;;2.96;84.09
31717;BME280;18301;51.076;17.046;2022-12-10T04:32:58;99227.41;;;3.06;83.51
31717;BME280;18301;51.076;17.046;2022-12-10T04:38:00;99231.97;;;2.90;83.24
31717;BME280;18301;51.076;17.046;2022-12-10T04:43:01;99227.69;;;2.87;83.63
31717;BME280;18301;51.076;17.046;2022-12-10T04:48:03;99230.81;;;2.80;83.58
31717;BME280;18301;51.076;17.046;2022-12-10T04:53:05;99247.09;;;2.75;84.09
31717;BME280;18301;51.076;17.046;2022-12-10T04:58:06;99244.41;;;2.75;83.46
31717;BME280;18301;51.076;17.046;2022-12-10T05:03:08;99244.41;;;2.75;83.18
31717;BME280;18301;51.076;17.046;2022-12-10T05:08:10;99247.47;;;2.83;82.37
31717;BME280;18301;51.076;17.046;2022-12-10T05:13:11;99235.94;;;2.83;82.79
31717;BME280;18301;51.076;17.046;2022-12-10T05:18:13;99253.16;;;2.77;83.29
31717;BME280;18301;51.076;17.046;2022-12-10T05:23:14;99255.25;;;2.72;82.92
31717;BME280;18301;51.076;17.046;2022-12-10T05:28:35;99252.13;;;2.80;83.03
31717;BME280;18301;51.076;17.046;2022-12-10T05:33:36;99263.44;;;2.83;82.97
31717;BME280;18301;51.076;17.046;2022-12-10T05:38:39;99263.06;;;2.75;82.46
31717;BME280;18301;51.076;17.046;2022-12-10T05:43:42;99254.22;;;2.74;82.58
31717;BME280;18301;51.076;17.046;2022-12-10T05:48:44;99267.25;;;2.79;82.62
31717;BME280;18301;51.076;17.046;2022-12-10T05:53:46;99251.63;;;2.73;83.03
31717;BME280;18301;51.076;17.046;2022-12-10T05:58:50;99260.41;;;2.75;81.78
31717;BME280;18301;51.076;17.046;2022-12-10T06:03:52;99263.19;;;2.58;82.71
31717;BME280;18301;51.076;17.046;2022-12-10T06:08:54;99261.88;;;2.65;82.55
31717;BME280;18301;51.076;17.046;2022-12-10T06:13:57;99259.00;;;2.53;82.85
31717;BME280;18301;51.076;17.046;2022-12-10T06:18:59;99256.91;;;2.44;82.84
31717;BME280;18301;51.076;17.046;2022-12-10T06:24:01;99249.31;;;2.52;82.58
31717;BME280;18301;51.076;17.046;2022-12-10T06:29:03;99257.66;;;2.46;83.01
31717;BME280;18301;51.076;17.046;2022-12-10T06:34:06;99260.69;;;2.40;82.72
31717;BME280;18301;51.076;17.046;2022-12-10T06:39:07;99276.31;;;2.30;83.63
31717;BME280;18301;51.076;17.046;2022-12-10T06:44:10;99261.41;;;2.28;83.60
31717;BME280;18301;51.076;17.046;2022-12-10T06:49:11;99263.44;;;2.39;83.05
31717;BME280;18301;51.076;17.046;2022-12-10T06:54:13;99267.91;;;2.38;82.44
31717;BME280;18301;51.076;17.046;2022-12-10T06:59:15;99284.84;;;2.37;82.81
31717;BME280;18301;51.076;17.046;2022-12-10T07:04:16;99288.94;;;2.27;82.67
31717;BME280;18301;51.076;17.046;2022-12-10T07:09:18;99299.03;;;2.22;83.32
31717;BME280;18301;51.076;17.046;2022-12-10T07:14:20;99291.72;;;2.25;83.47
31717;BME280;18301;51.076;17.046;2022-12-10T07:19:22;99301.56;;;2.39;83.48
31717;BME280;18301;51.076;17.046;2022-12-10T07:24:23;99305.84;;;2.42;82.55
31717;BME280;18301;51.076;17.046;2022-12-10T07:29:26;99299.06;;;2.36;83.39
31717;BME280;18301;51.076;17.046;2022-12-10T07:34:27;99304.50;;;2.35;83.10
31717;BME280;18301;51.076;17.046;2022-12-10T07:39:29;99285.91;;;2.49;82.45
31717;BME280;18301;51.076;17.046;2022-12-10T07:44:31;99295.47;;;2.37;83.27
31717;BME280;18301;51.076;17.046;2022-12-10T07:49:32;99309.28;;;2.44;82.94
31717;BME280;18301;51.076;17.046;2022-12-10T07:54:34;99319.84;;;2.45;82.69
31717;BME280;18301;51.076;17.046;2022-12-10T07:59:35;99322.44;;;2.47;82.96
31717;BME280;18301;51.076;17.046;2022-12-10T08:04:37;99328.72;;;2.30;83.13
31717;BME280;18301;51.076;17.046;2022-12-10T08:09:39;99328.19;;;2.23;83.55
31717;BME280;18301;51.076;17.046;2022-12-10T08:14:40;99329.22;;;2.21;84.21
31717;BME280;18301;51.076;17.046;2022-12-10T08:19:42;99329.06;;;2.24;83.30
31717;BME280;18301;51.076;17.046;2022-12-10T08:24:43;99333.34;;;2.26;84.30
31717;BME280;18301;51.076;17.046;2022-12-10T08:29:45;99334.34;;;2.56;82.33
31717;BME280;18301;51.076;17.046;2022-12-10T08:34:47;99338.25;;;2.34;82.88
31717;BME280;18301;51.076;17.046;2022-12-10T08:39:49;99344.69;;;2.30;83.29
31717;BME280;18301;51.076;17.046;2022-12-10T08:44:51;99342.13;;;2.13;83.78
31717;BME280;18301;51.076;17.046;2022-12-10T08:49:52;99344.50;;;2.17;84.08
31717;BME280;18301;51.076;17.046;2022-12-10T08:54:54;99339.19;;;2.17;83.68
31717;BME280;18301;51.076;17.046;2022-12-10T08:59:56;99338.16;;;2.20;84.00
31717;BME280;18301;51.076;17.046;2022-12-10T09:04:57;99346.50;;;2.14;84.20
31717;BME280;18301;51.076;17.046;2022-12-10T09:09:59;99343.16;;;2.26;84.15
31717;BME280;18301;51.076;17.046;2022-12-10T09:15:01;99342.13;;;2.28;83.96
31717;BME280;18301;51.076;17.046;2022-12-10T09:20:03;99345.09;;;2.38;84.16
31717;BME280;18301;51.076;17.046;2022-12-10T09:25:06;99344.16;;;2.39;84.22
31717;BME280;18301;51.076;17.046;2022-12-10T09:30:10;99341.78;;;2.35;83.91
31717;BME280;18301;51.076;17.046;2022-12-10T09:35:12;99344.41;;;2.50;83.69
31717;BME280;18301;51.076;17.046;2022-12-10T09:40:16;99329.53;;;2.62;83.77
31717;BME280;18301;51.076;17.046;2022-12-10T09:51:22;99331.72;;;2.70;83.50
31717;BME280;18301;51.076;17.046;2022-12-10T09:56:36;99333.63;;;2.68;83.37
31717;BME280;18301;51.076;17.046;2022-12-10T10:01:42;99327.34;;;2.69;82.65
31717;BME280;18301;51.076;17.046;2022-12-10T10:06:44;99299.41;;;2.76;81.90
31717;BME280;18301;51.076;17.046;2022-12-10T10:11:47;99305.44;;;2.64;82.85
31717;BME280;18301;51.076;17.046;2022-12-10T10:16:52;99295.28;;;2.70;82.92
31717;BME280;18301;51.076;17.046;2022-12-10T10:21:54;99287.16;;;2.88;82.46
31717;BME280;18301;51.076;17.046;2022-12-10T10:26:58;99287.59;;;2.80;82.57
31717;BME280;18301;51.076;17.046;2022-12-10T10:42:34;99292.50;;;2.88;81.62
31717;BME280;18301;51.076;17.046;2022-12-10T10:47:36;99285.16;;;2.91;81.81
31717;BME280;18301;51.076;17.046;2022-12-10T10:52:38;99275.47;;;2.90;81.64
31717;BME280;18301;51.076;17.046;2022-12-10T10:57:40;99273.38;;;2.95;80.86
31717;BME280;18301;51.076;17.046;2022-12-10T11:02:42;99274.66;;;2.74;81.47
31717;BME280;18301;51.076;17.046;2022-12-10T11:07:44;99284.00;;;2.81;81.31
31717;BME280;18301;51.076;17.046;2022-12-10T11:13:03;99298.81;;;2.71;81.92
31717;BME280;18301;51.076;17.046;2022-12-10T11:18:30;99307.81;;;2.84;81.43
31717;BME280;18301;51.076;17.046;2022-12-10T11:23:39;99301.75;;;2.96;81.33
31717;BME280;18301;51.076;17.046;2022-12-10T11:28:50;99308.41;;;3.04;81.10
31717;BME280;18301;51.076;17.046;2022-12-10T12:00:40;99310.34;;;3.16;81.24
31717;BME280;18301;51.076;17.046;2022-12-10T12:16:46;99295.19;;;3.16;79.72
31717;BME280;18301;51.076;17.046;2022-12-10T12:21:50;99313.00;;;3.16;80.63
31717;BME280;18301;51.076;17.046;2022-12-10T12:26:57;99305.41;;;3.24;80.67
31717;BME280;18301;51.076;17.046;2022-12-10T12:32:05;99300.81;;;3.12;80.20
31717;BME280;18301;51.076;17.046;2022-12-10T12:37:12;99300.72;;;3.13;80.19
31717;BME280;18301;51.076;17.046;2022-12-10T12:42:27;99290.16;;;3.12;79.29
31717;BME280;18301;51.076;17.046;2022-12-10T12:52:56;99296.03;;;3.03;80.45
31717;BME280;18301;51.076;17.046;2022-12-10T12:58:37;99294.81;;;3.08;79.76
31717;BME280;18301;51.076;17.046;2022-12-10T13:03:43;99285.69;;;3.12;80.42
31717;BME280;18301;51.076;17.046;2022-12-10T14:00:56;99304.97;;;3.02;79.28
31717;BME280;18301;51.076;17.046;2022-12-10T14:11:34;99313.88;;;2.72;80.33
31717;BME280;18301;51.076;17.046;2022-12-10T14:16:39;99320.28;;;2.68;80.17
31717;BME280;18301;51.076;17.046;2022-12-10T14:21:43;99318.09;;;2.90;80.11
31717;BME280;18301;51.076;17.046;2022-12-10T14:26:45;99317.50;;;2.85;79.17
31717;BME280;18301;51.076;17.046;2022-12-10T14:31:48;99335.56;;;2.80;79.94
31717;BME280;18301;51.076;17.046;2022-12-10T14:36:52;99335.44;;;2.97;79.91
31717;BME280;18301;51.076;17.046;2022-12-10T14:42:01;99346.69;;;3.03;79.48
31717;BME280;18301;51.076;17.046;2022-12-10T14:47:13;99341.44;;;3.01;79.98
31717;BME280;18301;51.076;17.046;2022-12-10T14:52:19;99340.75;;;2.97;79.28
31717;BME280;18301;51.076;17.046;2022-12-10T14:57:25;99353.47;;;2.92;79.73
31717;BME280;18301;51.076;17.046;2022-12-10T15:02:37;99358.63;;;2.95;79.16
31717;BME280;18301;51.076;17.046;2022-12-10T15:07:39;99374.25;;;3.02;79.40
31717;BME280;18301;51.076;17.046;2022-12-10T15:12:45;99376.19;;;2.99;79.49
31717;BME280;18301;51.076;17.046;2022-12-10T15:28:34;99364.13;;;3.08;79.78
31717;BME280;18301;51.076;17.046;2022-12-10T15:33:40;99370.31;;;3.09;79.60
31717;BME280;18301;51.076;17.046;2022-12-10T15:38:43;99376.75;;;3.05;79.29
31717;BME280;18301;51.076;17.046;2022-12-10T15:43:56;99375.03;;;2.73;80.60
31717;BME280;18301;51.076;17.046;2022-12-10T15:48:59;99378.28;;;2.79;80.24
31717;BME280;18301;51.076;17.046;2022-12-10T15:54:13;99378.75;;;3.01;80.17
31717;BME280;18301;51.076;17.046;2022-12-10T15:59:19;99376.53;;;2.93;80.24
31717;BME280;18301;51.076;17.046;2022-12-10T16:04:20;99376.00;;;3.03;80.08
31717;BME280;18301;51.076;17.046;2022-12-10T16:09:22;99380.50;;;2.86;80.19
31717;BME280;18301;51.076;17.046;2022-12-10T16:14:23;99378.78;;;2.85;80.05
31717;BME280;18301;51.076;17.046;2022-12-10T16:19:25;99373.63;;;2.82;80.49
31717;BME280;18301;51.076;17.046;2022-12-10T16:24:26;99366.59;;;2.81;80.56
31717;BME280;18301;51.076;17.046;2022-12-10T16:29:28;99367.72;;;2.77;80.80
31717;BME280;18301;51.076;17.046;2022-12-10T16:34:30;99364.88;;;2.80;80.08
31717;BME280;18301;51.076;17.046;2022-12-10T16:39:31;99349.84;;;2.79;80.13
31717;BME280;18301;51.076;17.046;2022-12-10T16:44:33;99358.38;;;2.70;80.65
31717;BME280;18301;51.076;17.046;2022-12-10T16:49:35;99357.75;;;2.81;80.48
31717;BME280;18301;51.076;17.046;2022-12-10T16:54:36;99363.28;;;2.92;79.90
31717;BME280;18301;51.076;17.046;2022-12-10T16:59:38;99354.56;;;2.90;78.77
31717;BME280;18301;51.076;17.046;2022-12-10T17:04:39;99364.31;;;2.89;79.95
31717;BME280;18301;51.076;17.046;2022-12-10T17:09:41;99360.13;;;2.85;80.09
31717;BME280;18301;51.076;17.046;2022-12-10T17:14:44;99357.28;;;2.88;79.77
31717;BME280;18301;51.076;17.046;2022-12-10T17:19:49;99349.72;;;2.96;79.74
31717;BME280;18301;51.076;17.046;2022-12-10T17:24:50;99356.50;;;3.02;79.94
31717;BME280;18301;51.076;17.046;2022-12-10T17:29:52;99366.69;;;3.10;79.77
31717;BME280;18301;51.076;17.046;2022-12-10T17:34:58;99369.34;;;3.10;79.08
31717;BME280;18301;51.076;17.046;2022-12-10T17:40:00;99386.56;;;3.04;79.20
31717;BME280;18301;51.076;17.046;2022-12-10T17:45:01;99400.63;;;2.76;79.69
31717;BME280;18301;51.076;17.046;2022-12-10T17:55:21;99399.81;;;2.60;79.84
31717;BME280;18301;51.076;17.046;2022-12-10T18:00:23;99403.25;;;2.62;79.90
31717;BME280;18301;51.076;17.046;2022-12-10T18:05:25;99398.44;;;2.52;79.83
31717;BME280;18301;51.076;17.046;2022-12-10T18:10:31;99396.81;;;2.50;80.00
31717;BME280;18301;51.076;17.046;2022-12-10T18:15:34;99400.31;;;2.50;80.27
31717;BME280;18301;51.076;17.046;2022-12-10T18:20:38;99396.97;;;2.63;79.99
31717;BME280;18301;51.076;17.046;2022-12-10T18:25:42;99382.66;;;2.49;79.73
31717;BME280;18301;51.076;17.046;2022-12-10T18:30:44;99382.16;;;2.73;80.07
31717;BME280;18301;51.076;17.046;2022-12-10T18:35:46;99379.16;;;2.79;79.67
31717;BME280;18301;51.076;17.046;2022-12-10T18:40:48;99368.91;;;2.87;79.52
31717;BME280;18301;51.076;17.046;2022-12-10T18:45:50;99376.53;;;2.93;79.82
31717;BME280;18301;51.076;17.046;2022-12-10T18:50:52;99359.19;;;2.86;79.27
31717;BME280;18301;51.076;17.046;2022-12-10T18:55:55;99374.25;;;2.87;78.74
31717;BME280;18301;51.076;17.046;2022-12-10T19:00:57;99369.63;;;2.75;78.85
31717;BME280;18301;51.076;17.046;2022-12-10T19:05:58;99369.94;;;2.85;79.04
31717;BME280;18301;51.076;17.046;2022-12-10T19:11:00;99370.72;;;2.87;78.73
31717;BME280;18301;51.076;17.046;2022-12-10T19:16:02;99375.72;;;2.61;79.34
31717;BME280;18301;51.076;17.046;2022-12-10T19:21:03;99361.16;;;2.52;79.43
31717;BME280;18301;51.076;17.046;2022-12-10T19:31:20;99358.06;;;2.44;79.87
31717;BME280;18301;51.076;17.046;2022-12-10T19:36:24;99363.22;;;2.47;79.61
31717;BME280;18301;51.076;17.046;2022-12-10T19:41:26;99374.88;;;2.61;79.20
31717;BME280;18301;51.076;17.046;2022-12-10T19:46:27;99390.84;;;2.61;79.30
31717;BME280;18301;51.076;17.046;2022-12-10T19:51:29;99396.53;;;2.39;80.04
31717;BME280;18301;51.076;17.046;2022-12-10T19:56:32;99384.34;;;2.50;79.42
31717;BME280;18301;51.076;17.046;2022-12-10T20:01:34;99388.13;;;2.46;79.61
31717;BME280;18301;51.076;17.046;2022-12-10T20:06:38;99390.81;;;2.46;79.10
31717;BME280;18301;51.076;17.046;2022-12-10T20:11:40;99393.69;;;2.58;79.34
31717;BME280;18301;51.076;17.046;2022-12-10T20:16:42;99382.19;;;2.57;78.38
31717;BME280;18301;51.076;17.046;2022-12-10T20:21:44;99378.31;;;2.63;79.23
31717;BME280;18301;51.076;17.046;2022-12-10T20:26:47;99372.63;;;2.69;79.13
31717;BME280;18301;51.076;17.046;2022-12-10T20:31:52;99362.16;;;2.66;78.24
31717;BME280;18301;51.076;17.046;2022-12-10T20:36:54;99348.88;;;2.50;79.20
31717;BME280;18301;51.076;17.046;2022-12-10T20:41:56;99358.22;;;2.57;78.89
31717;BME280;18301;51.076;17.046;2022-12-10T20:46:58;99363.41;;;2.44;79.07
31717;BME280;18301;51.076;17.046;2022-12-10T20:51:59;99362.44;;;2.45;79.35
31717;BME280;18301;51.076;17.046;2022-12-10T20:57:01;99365.59;;;2.52;79.25
31717;BME280;18301;51.076;17.046;2022-12-10T21:02:03;99359.06;;;2.58;79.46
31717;BME280;18301;51.076;17.046;2022-12-10T21:07:04;99359.25;;;2.54;79.00
31717;BME280;18301;51.076;17.046;2022-12-10T21:12:07;99369.66;;;2.59;78.96
31717;BME280;18301;51.076;17.046;2022-12-10T21:17:12;99372.91;;;2.48;78.57
31717;BME280;18301;51.076;17.046;2022-12-10T21:22:14;99377.50;;;2.46;78.27
31717;BME280;18301;51.076;17.046;2022-12-10T21:27:17;99382.72;;;2.48;78.81
31717;BME280;18301;51.076;17.046;2022-12-10T21:32:19;99396.88;;;2.48;78.77
31717;BME280;18301;51.076;17.046;2022-12-10T21:37:20;99389.31;;;2.57;78.73
31717;BME280;18301;51.076;17.046;2022-12-10T21:42:22;99380.06;;;2.48;78.66
31717;BME280;18301;51.076;17.046;2022-12-10T21:47:42;99388.72;;;2.51;77.88
31717;BME280;18301;51.076;17.046;2022-12-10T21:52:45;99382.47;;;2.52;78.08
31717;BME280;18301;51.076;17.046;2022-12-10T21:57:47;99374.47;;;2.52;77.56
31717;BME280;18301;51.076;17.046;2022-12-10T22:02:49;99376.59;;;2.46;78.60
31717;BME280;18301;51.076;17.046;2022-12-10T22:07:51;99373.63;;;2.36;78.75
31717;BME280;18301;51.076;17.046;2022-12-10T22:12:52;99373.69;;;2.50;78.72
31717;BME280;18301;51.076;17.046;2022-12-10T22:17:54;99370.75;;;2.55;78.33
31717;BME280;18301;51.076;17.046;2022-12-10T22:22:55;99372.50;;;2.56;78.11
31717;BME280;18301;51.076;17.046;2022-12-10T22:27:57;99384.00;;;2.57;77.97
31717;BME280;18301;51.076;17.046;2022-12-10T22:32:59;99375.75;;;2.45;77.59
31717;BME280;18301;51.076;17.046;2022-12-10T22:38:00;99377.84;;;2.40;78.19
31717;BME280;18301;51.076;17.046;2022-12-10T22:43:02;99377.66;;;2.43;78.01
31717;BME280;18301;51.076;17.046;2022-12-10T22:48:24;99374.41;;;2.38;78.14
31717;BME280;18301;51.076;17.046;2022-12-10T22:53:26;99369.44;;;2.16;79.14
31717;BME280;18301;51.076;17.046;2022-12-10T22:58:28;99352.84;;;2.27;78.97
31717;BME280;18301;51.076;17.046;2022-12-10T23:03:29;99353.09;;;2.38;78.86
31717;BME280;18301;51.076;17.046;2022-12-10T23:08:32;99339.53;;;2.27;78.34
31717;BME280;18301;51.076;17.046;2022-12-10T23:13:34;99339.78;;;2.38;78.78
31717;BME280;18301;51.076;17.046;2022-12-10T23:18:39;99339.13;;;2.19;78.71
31717;BME280;18301;51.076;17.046;2022-12-10T23:23:41;99342.53;;;2.21;79.25
31717;BME280;18301;51.076;17.046;2022-12-10T23:28:43;99350.88;;;2.15;79.81
31717;BME280;18301;51.076;17.046;2022-12-10T23:33:44;99342.97;;;2.13;79.91
31717;BME280;18301;51.076;17.046;2022-12-10T23:38:46;99346.22;;;2.02;80.48
31717;BME280;18301;51.076;17.046;2022-12-10T23:43:48;99337.66;;;1.97;80.08
31717;BME280;18301;51.076;17.046;2022-12-10T23:48:57;99333.53;;;2.23;80.04
31717;BME280;18301;51.076;17.046;2022-12-10T23:53:58;99333.19;;;2.14;79.78
31717;BME280;18301;51.076;17.046;2022-12-10T23:59:00;99340.72;;;2.05;79.73
